General Aviation Weather

Text Reports

Enter one or more of the following location identifiers separated by a space:

Zip Code, Four-Character ICAO or Three-Character IATA airport codes.

METAR - Aviation Routine Weather Report
KHWD - Hayward, California
Updated at 5:54 AM GMT on November 29, 2014 (9:54 PM PST):
METAR KHWD 290554Z AUTO 15003KT 10SM OVC036 13/11 A2988 RMK AO2 SLP127 T01280106 10139 20106 50000
TAF - Terminal Area Forecast
KHWD - Hayward, California
Updated at 5:54 AM GMT on November 29, 2014 (9:54 PM PST):
No TAF is currently available for this location.
Decoded:
No decoded TAF is available.
PIREP - Pilot Weather Report
KHWD - Hayward, California
Updated at 5:54 AM GMT on November 29, 2014 (9:54 PM PST):
No PIREP is currently available for this location.
AIRMET - Airmens Meteorological Information
KHWD - Hayward, California
Updated at 5:54 AM GMT on November 29, 2014 (9:54 PM PST):
No AIRMET is currently available for this location.
SIGMET - Significant Meteorological Information
KHWD - Hayward, California
Updated at 5:54 AM GMT on November 29, 2014 (9:54 PM PST):
No SIGMET is currently available for this location.
NOTAM - Notice to Airmen
KHWD - Hayward, California
Updated at 5:54 AM GMT on November 29, 2014 (9:54 PM PST):
No NOTAM is currently available for this location.
Forecast Area
KHWD - Hayward, California
Updated at 5:54 AM GMT on November 29, 2014 (9:54 PM PST):
No NOTAM is currently available for this location.
Aviation Weather Maps